Evans Mills, New York
Current Conditions -  °F | °C
As of 7:12 PM on Thursday 18 Dec 2014 (Local Time) from KGTB Reporting Station
Unknown Precip Unknown Precip  
Wind Chill: 21°   Ceiling: 1300
Heat Index: 27°   Visibility: 10mi
Dew Point: 21°   Wind: 5mph
Humidity: 80%   Direction: 320°NW
Pressure: 30"   Gusts: NA
Location:  44.09°N, 75.81°W
Report Text: KGTB 190012Z AUTO 32004KT 10SM UP OVC013 M03/M06 A3000 RMK AO2
Loading
Personal Weather Stations






























Interactive Weather Map New forecast layout! Learn more

10-Day Weather Forecast

Advertisements
Track Severe Weather on mobile